Terminal Aerodrome Forecast
Issued by NWS Charleston, WV

Current Version | Previous Version | Graphics & Text | Print | Product List | Glossary On
Versions: 1 2 3 4 5 6 7 8 9 10 11 12 13 14 15 16 17 18 19 20 21 22
000
FTUS41 KRLX 250200 AAA
TAFPKB
TAF AMD
KPKB 250255Z 2503/2524 23008KT P6SM SKC
     FM250400 25009KT P6SM BKN030
     FM251200 24008KT P6SM BKN200=

USA.gov is the U.S. government's official web portal to all federal, state and local government web resources and services.